createdAt,value
2023-11-10T00:02:00.203Z,97542.88
2023-11-10T00:04:49.837Z,97536.56
2023-11-10T00:07:35.684Z,97543.69
2023-11-10T00:10:22.772Z,97535.34
2023-11-10T00:13:08.265Z,97533.78
2023-11-10T00:15:53.478Z,97531.78
2023-11-10T00:18:38.921Z,97540.91
2023-11-10T00:21:24.835Z,97535.34
2023-11-10T00:24:10.334Z,97526.72
2023-11-10T00:26:55.503Z,97523.94
2023-11-10T00:29:45.256Z,97521.16
2023-11-10T00:32:30.726Z,97522.38
2023-11-10T00:35:16.071Z,97516.81
2023-11-10T00:38:01.277Z,97509.75
2023-11-10T00:40:46.710Z,97504.19
2023-11-10T00:43:32.290Z,97504.19
2023-11-10T00:46:18.272Z,97506.22
2023-11-10T00:49:04.011Z,97508.19
2023-11-10T00:51:49.936Z,97511.75
2023-11-10T00:54:35.474Z,97503.88
2023-11-10T00:57:20.780Z,97499.59
2023-11-10T01:00:07.671Z,97510.69
2023-11-10T01:02:56.040Z,97506.66
2023-11-10T01:05:45.186Z,97498.03
2023-11-10T01:08:30.383Z,97491.72
2023-11-10T01:11:16.076Z,97503.56
2023-11-10T01:14:01.487Z,97502.81
2023-11-10T01:16:46.802Z,97497.25
2023-11-10T01:19:33.406Z,97494.47
2023-11-10T01:22:18.991Z,97485.38
2023-11-10T01:25:13.452Z,97482.63
2023-11-10T01:27:58.875Z,97481.06
2023-11-10T01:30:44.337Z,97483.84
2023-11-10T01:33:29.721Z,97481.06
2023-11-10T01:36:15.137Z,97479.53
2023-11-10T01:39:01.129Z,97479.03
2023-11-10T01:41:46.416Z,97468.44
2023-11-10T01:44:32.976Z,97483.06
2023-11-10T01:47:18.347Z,97479.53
2023-11-10T01:50:05.166Z,97475.97
2023-11-10T01:52:50.547Z,97469.66
2023-11-10T01:55:37.931Z,97468.44
2023-11-10T01:58:24.065Z,97457.00
2023-11-10T02:01:11.394Z,97469.66
2023-11-10T02:03:56.951Z,97463.34
2023-11-10T02:06:44.256Z,97468.88
2023-11-10T02:09:30.230Z,97468.13
2023-11-10T02:12:15.765Z,97470.88
2023-11-10T02:15:02.926Z,97466.56
2023-11-10T02:23:19.499Z,97466.56
2023-11-10T02:26:05.058Z,97460.25
2023-11-10T02:28:50.565Z,97451.91
2023-11-10T02:31:36.177Z,97449.16
2023-11-10T02:34:21.656Z,97449.91
2023-11-10T02:37:09.003Z,97431.72
2023-11-10T02:39:54.487Z,97420.63
2023-11-10T02:42:40.393Z,97419.38
2023-11-10T02:45:25.784Z,97409.53
2023-11-10T02:48:11.317Z,97416.28
2023-11-10T02:50:57.140Z,97413.53
2023-11-10T02:53:42.966Z,97423.84
2023-11-10T02:56:28.205Z,97412.00
2023-11-10T02:59:14.255Z,97420.31
2023-11-10T03:01:59.556Z,97400.44
2023-11-10T03:04:46.296Z,97402.41
2023-11-10T03:07:31.925Z,97406.44
2023-11-10T03:10:18.097Z,97401.66
2023-11-10T03:13:04.460Z,97401.66
2023-11-10T03:15:49.970Z,97401.66
2023-11-10T03:18:35.376Z,97390.56
2023-11-10T03:21:20.720Z,97390.56
2023-11-10T03:24:06.440Z,97373.16
2023-11-10T03:26:51.678Z,97384.25
2023-11-10T03:29:37.384Z,97380.22
2023-11-10T03:32:22.946Z,97389.03
2023-11-10T03:35:09.178Z,97380.69
2023-11-10T03:37:54.850Z,97360.50
2023-11-10T03:40:40.190Z,97370.06
2023-11-10T03:43:26.841Z,97361.28
2023-11-10T03:46:12.652Z,97362.81
2023-11-10T03:48:58.234Z,97357.72
2023-11-10T03:51:44.887Z,97359.28
2023-11-10T03:54:30.574Z,97362.03
2023-11-10T03:57:16.278Z,97370.38
2023-11-10T04:00:02.006Z,97381.47
2023-11-10T04:02:49.984Z,97381.47
2023-11-10T04:05:35.218Z,97381.47
2023-11-10T04:08:20.563Z,97369.59
2023-11-10T04:11:05.956Z,97366.84
2023-11-10T04:13:51.451Z,97377.44
2023-11-10T04:16:37.004Z,97377.94
2023-11-10T04:19:23.558Z,97377.94
2023-11-10T04:22:09.205Z,97371.91
2023-11-10T04:24:56.123Z,97377.13
2023-11-10T04:27:42.617Z,97375.16
2023-11-10T04:30:29.512Z,97362.03
2023-11-10T04:33:14.998Z,97375.16
2023-11-10T04:36:00.253Z,97374.38
2023-11-10T04:38:48.826Z,97391.00
2023-11-10T04:41:34.555Z,97389.03
2023-11-10T04:44:19.795Z,97388.25
2023-11-10T04:47:05.114Z,97381.16
2023-11-10T04:49:50.441Z,97381.94
2023-11-10T04:52:37.078Z,97385.94
2023-11-10T04:55:23.097Z,97385.47
2023-11-10T04:58:08.180Z,97383.16
2023-11-10T05:00:53.702Z,97374.09
2023-11-10T05:03:38.975Z,97371.59
2023-11-10T05:06:31.098Z,97367.59
2023-11-10T05:09:16.728Z,97367.91
2023-11-10T05:12:02.358Z,97381.78
2023-11-10T05:14:47.605Z,97383.31
2023-11-10T05:17:40.016Z,97385.63
2023-11-10T05:20:25.531Z,97379.31
2023-11-10T05:23:10.866Z,97383.91
2023-11-10T05:25:57.067Z,97380.53
2023-11-10T05:28:42.300Z,97386.38
2023-11-10T05:31:27.602Z,97393.19
2023-11-10T05:34:13.597Z,97397.50
2023-11-10T05:36:59.029Z,97399.03
2023-11-10T05:39:44.477Z,97403.66
2023-11-10T05:42:29.967Z,97403.50
2023-11-10T05:45:15.780Z,97403.81
2023-11-10T05:48:01.379Z,97396.25
2023-11-10T05:50:48.926Z,97407.34
2023-11-10T05:53:34.241Z,97401.03
2023-11-10T05:56:23.375Z,97406.88
2023-11-10T05:59:09.971Z,97393.00
2023-11-10T06:01:59.044Z,97398.84
2023-11-10T06:04:45.503Z,97397.78
2023-11-10T06:07:32.488Z,97404.25
2023-11-10T06:10:18.708Z,97406.88
2023-11-10T06:13:05.247Z,97410.72
2023-11-10T06:15:51.277Z,97397.16
2023-11-10T06:18:36.707Z,97409.31
2023-11-10T06:21:24.340Z,97414.41
2023-11-10T06:24:10.016Z,97403.28
2023-11-10T06:26:55.312Z,97402.22
2023-11-10T06:29:40.817Z,97416.91
2023-11-10T06:32:27.579Z,97412.25
2023-11-10T06:35:13.089Z,97414.72
2023-11-10T06:37:58.491Z,97412.75
2023-11-10T06:40:43.730Z,97412.44
2023-11-10T06:43:29.245Z,97411.34
2023-11-10T06:46:24.050Z,97411.50
2023-11-10T06:49:09.695Z,97420.59
2023-11-10T06:51:55.052Z,97413.66
2023-11-10T06:54:40.574Z,97412.59
2023-11-10T06:57:27.507Z,97405.78
2023-11-10T07:00:13.201Z,97411.84
2023-11-10T07:03:00.928Z,97404.72
2023-11-10T07:05:46.107Z,97400.88
2023-11-10T07:08:32.733Z,97406.44
2023-11-10T07:11:18.414Z,97406.13
2023-11-10T07:14:04.153Z,97407.69
2023-11-10T07:16:50.979Z,97404.59
2023-11-10T07:19:36.871Z,97412.91
2023-11-10T07:22:21.989Z,97408.59
2023-11-10T07:25:08.057Z,97409.84
2023-11-10T07:27:54.573Z,97405.50
2023-11-10T07:30:41.021Z,97403.97
2023-11-10T07:33:26.612Z,97412.31
2023-11-10T07:36:12.678Z,97405.69
2023-11-10T07:38:58.317Z,97394.59
2023-11-10T07:41:43.593Z,97399.06
2023-11-10T07:44:29.328Z,97390.72
2023-11-10T07:47:14.536Z,97390.72
2023-11-10T07:50:00.064Z,97392.72
2023-11-10T07:52:49.689Z,97397.50
2023-11-10T07:55:34.831Z,97404.00
2023-11-10T07:58:20.069Z,97406.00
2023-11-10T08:01:05.446Z,97415.53
2023-11-10T08:03:51.249Z,97411.25
2023-11-10T08:06:37.658Z,97405.38
2023-11-10T08:09:23.169Z,97408.59
2023-11-10T08:12:08.737Z,97409.81
2023-11-10T08:14:55.836Z,97413.81
2023-11-10T08:17:41.471Z,97416.16
2023-11-10T08:20:27.647Z,97413.81
2023-11-10T08:23:15.346Z,97421.38
2023-11-10T08:26:00.692Z,97432.47
2023-11-10T08:28:45.931Z,97426.94
2023-11-10T08:31:31.390Z,97437.25
2023-11-10T08:34:17.862Z,97434.50
2023-11-10T08:37:03.543Z,97440.03
2023-11-10T08:39:49.258Z,97435.69
2023-11-10T08:42:34.745Z,97436.47
2023-11-10T08:45:20.152Z,97444.78
2023-11-10T08:48:05.661Z,97435.69
2023-11-10T08:50:51.300Z,97435.69
2023-11-10T08:53:38.195Z,97437.72
2023-11-10T08:56:24.197Z,97438.16
2023-11-10T08:59:10.408Z,97427.06
2023-11-10T09:01:55.799Z,97437.41
2023-11-10T09:04:41.049Z,97436.63
2023-11-10T09:07:28.430Z,97433.09
2023-11-10T09:10:13.897Z,97428.00
2023-11-10T09:12:59.603Z,97430.78
2023-11-10T09:15:47.411Z,97429.22
2023-11-10T09:18:37.954Z,97428.47
2023-11-10T09:21:23.119Z,97434.50
2023-11-10T09:24:08.929Z,97428.16
2023-11-10T09:26:54.425Z,97428.94
2023-11-10T09:29:41.212Z,97425.84
2023-11-10T09:32:26.914Z,97421.84
2023-11-10T09:35:17.845Z,97419.50
2023-11-10T09:38:04.710Z,97427.06
2023-11-10T09:40:51.098Z,97413.19
2023-11-10T09:43:37.103Z,97418.75
2023-11-10T09:46:24.180Z,97403.34
2023-11-10T09:49:10.307Z,97398.56
2023-11-10T09:51:56.290Z,97396.56
2023-11-10T09:54:43.775Z,97391.78
2023-11-10T09:57:31.494Z,97402.09
2023-11-10T10:00:19.886Z,97402.09
2023-11-10T10:03:06.479Z,97404.13
2023-11-10T10:05:52.618Z,97395.78
2023-11-10T10:08:38.127Z,97391.00
2023-11-10T10:11:24.269Z,97400.88
2023-11-10T10:14:09.954Z,97398.13
2023-11-10T10:16:56.622Z,97396.56
2023-11-10T10:19:42.109Z,97385.47
2023-11-10T10:22:27.639Z,97388.69
2023-11-10T10:25:14.092Z,97378.38
2023-11-10T10:28:03.281Z,97383.13
2023-11-10T10:30:49.125Z,97380.84
2023-11-10T10:33:35.392Z,97383.13
2023-11-10T10:36:20.884Z,97376.53
2023-11-10T10:39:11.700Z,97382.84
2023-11-10T10:42:00.951Z,97373.75
2023-11-10T10:44:47.014Z,97376.22
2023-11-10T10:47:35.534Z,97377.00
2023-11-10T10:50:24.996Z,97375.75
2023-11-10T10:53:13.960Z,97372.22
2023-11-10T10:56:02.829Z,97370.66
2023-11-10T10:58:48.489Z,97363.59
2023-11-10T11:01:37.876Z,97364.34
2023-11-10T11:04:34.206Z,97365.59
2023-11-10T11:07:51.665Z,97362.03
2023-11-10T11:10:58.105Z,97357.72
2023-11-10T11:14:01.694Z,97358.81
2023-11-10T11:17:07.765Z,97362.34
2023-11-10T11:19:53.690Z,97354.03
2023-11-10T11:22:39.695Z,97358.03
2023-11-10T11:25:25.217Z,97348.47
2023-11-10T11:28:10.488Z,97344.94
2023-11-10T11:31:11.672Z,97367.88
2023-11-10T11:34:03.974Z,97361.56
2023-11-10T11:36:50.198Z,97350.47
2023-11-10T11:39:36.267Z,97349.72
2023-11-10T11:42:24.241Z,97350.16
2023-11-10T11:45:16.826Z,97357.28
2023-11-10T11:48:02.210Z,97363.59
2023-11-10T11:50:53.247Z,97364.03
2023-11-10T11:53:39.064Z,97363.28
2023-11-10T11:56:24.377Z,97364.81
2023-11-10T11:59:12.583Z,97355.72
2023-11-10T12:01:57.949Z,97348.66
2023-11-10T12:04:44.021Z,97352.63
2023-11-10T12:07:33.078Z,97344.31
2023-11-10T12:10:18.811Z,97347.88
2023-11-10T12:13:04.359Z,97347.88
2023-11-10T12:15:49.823Z,97346.31
2023-11-10T12:18:37.093Z,97349.09
2023-11-10T12:21:22.868Z,97344.78
2023-11-10T12:24:09.855Z,97345.25
2023-11-10T12:27:01.124Z,97341.72
2023-11-10T12:29:46.816Z,97334.91
2023-11-10T12:32:32.508Z,97332.16
2023-11-10T12:35:21.185Z,97330.94
2023-11-10T12:38:09.499Z,97333.72
2023-11-10T12:40:56.606Z,97330.94
2023-11-10T12:43:41.969Z,97342.78
2023-11-10T12:46:27.532Z,97339.25
2023-11-10T12:49:13.076Z,97347.88
2023-11-10T12:52:11.375Z,97364.22
2023-11-10T12:54:56.827Z,97384.38
2023-11-10T12:57:42.201Z,97385.16
2023-11-10T13:00:28.034Z,97398.25
2023-11-10T13:03:13.774Z,97394.72
2023-11-10T13:06:00.262Z,97382.84
2023-11-10T13:08:45.456Z,97382.84
2023-11-10T13:11:30.885Z,97374.50
2023-11-10T13:14:16.769Z,97372.97
2023-11-10T13:17:02.348Z,97370.22
2023-11-10T13:19:47.969Z,97365.13
2023-11-10T13:22:33.307Z,97371.91
2023-11-10T13:25:19.808Z,97367.13
2023-11-10T13:28:08.362Z,97360.81
2023-11-10T13:30:54.970Z,97365.59
2023-11-10T13:33:42.937Z,97359.25
2023-11-10T13:36:28.513Z,97353.72
2023-11-10T13:39:14.794Z,97352.19
2023-11-10T13:42:00.712Z,97352.19
2023-11-10T13:44:46.013Z,97357.72
2023-11-10T13:47:31.566Z,97357.72
2023-11-10T13:50:16.632Z,97368.06
2023-11-10T13:53:02.117Z,97370.34
2023-11-10T13:55:47.809Z,97368.38
2023-11-10T13:58:34.614Z,97371.16
2023-11-10T14:01:20.904Z,97373.13
2023-11-10T14:04:07.745Z,97367.56
2023-11-10T14:06:53.638Z,97369.13
2023-11-10T14:09:39.433Z,97375.91
2023-11-10T14:12:26.466Z,97374.38
2023-11-10T14:15:15.960Z,97384.22
2023-11-10T14:18:01.726Z,97386.22
2023-11-10T14:20:48.134Z,97383.91
2023-11-10T14:23:33.752Z,97386.69
2023-11-10T14:26:19.084Z,97387.91
2023-11-10T14:29:04.587Z,97387.91
2023-11-10T14:31:49.971Z,97395.47
2023-11-10T14:34:39.821Z,97391.94
2023-11-10T14:37:26.239Z,97395.94
2023-11-10T14:40:29.198Z,97395.94
2023-11-10T14:43:20.236Z,97394.41
2023-11-10T14:46:09.779Z,97396.84
2023-11-10T14:48:56.063Z,97402.41
2023-11-10T14:51:46.592Z,97400.41
2023-11-10T14:54:35.192Z,97408.72
2023-11-10T14:57:20.549Z,97409.16
2023-11-10T15:00:07.152Z,97412.69
2023-11-10T15:02:53.489Z,97423.03
2023-11-10T15:05:39.123Z,97415.47
2023-11-10T15:08:27.984Z,97417.47
2023-11-10T15:11:14.265Z,97417.97
2023-11-10T15:14:00.347Z,97418.88
2023-11-10T15:16:49.917Z,97428.00
2023-11-10T15:19:36.167Z,97417.19
2023-11-10T15:22:21.454Z,97419.50
2023-11-10T15:25:11.029Z,97421.22
2023-11-10T15:27:57.570Z,97424.59
2023-11-10T15:30:46.891Z,97424.47
2023-11-10T15:33:36.098Z,97428.63
2023-11-10T15:36:21.515Z,97424.47
2023-11-10T15:41:58.400Z,97424.16
2023-11-10T15:44:47.092Z,97428.34
2023-11-10T15:47:33.768Z,97424.31
2023-11-10T15:50:19.428Z,97422.66
2023-11-10T15:53:05.296Z,97425.72
2023-11-10T15:55:50.720Z,97426.31
2023-11-10T15:58:36.597Z,97431.41
2023-11-10T16:01:22.700Z,97435.56
2023-11-10T16:04:08.502Z,97435.56
2023-11-10T16:06:53.931Z,97434.81
2023-11-10T16:09:39.222Z,97429.72
2023-11-10T16:12:27.298Z,97433.44
2023-11-10T16:15:13.060Z,97433.88
2023-11-10T16:17:59.384Z,97432.03
2023-11-10T16:20:44.649Z,97442.84
2023-11-10T16:23:29.924Z,97443.75
2023-11-10T16:26:19.470Z,97444.22
2023-11-10T16:29:06.941Z,97455.78
2023-11-10T16:31:53.415Z,97457.00
2023-11-10T16:34:38.612Z,97452.34
2023-11-10T16:37:23.989Z,97460.22
2023-11-10T16:40:11.508Z,97445.28
2023-11-10T16:42:58.823Z,97450.50
2023-11-10T16:45:44.713Z,97460.84
2023-11-10T16:48:31.058Z,97454.50
2023-11-10T16:51:16.520Z,97458.53
2023-11-10T16:54:01.728Z,97455.75
2023-11-10T16:56:47.056Z,97453.41
2023-11-10T16:59:34.329Z,97455.44
2023-11-10T17:02:24.282Z,97452.66
2023-11-10T17:05:16.323Z,97465.00
2023-11-10T17:08:03.349Z,97475.78
2023-11-10T17:10:48.775Z,97472.22
2023-11-10T17:13:36.062Z,97477.31
2023-11-10T17:16:21.724Z,97480.09
2023-11-10T17:19:07.595Z,97486.41
2023-11-10T17:21:54.159Z,97483.63
2023-11-10T17:24:39.665Z,97482.41
2023-11-10T17:27:24.973Z,97487.94
2023-11-10T17:30:10.842Z,97484.41
2023-11-10T17:32:56.712Z,97480.41
2023-11-10T17:35:42.541Z,97481.94
2023-11-10T17:38:27.994Z,97481.94
2023-11-10T17:41:13.491Z,97498.56
2023-11-10T17:44:00.232Z,97494.59
2023-11-10T17:46:45.893Z,97503.66
2023-11-10T17:49:31.099Z,97505.22
2023-11-10T17:52:16.412Z,97509.22
2023-11-10T17:55:01.691Z,97505.69
2023-11-10T17:57:47.281Z,97507.22
2023-11-10T18:00:32.581Z,97498.56
2023-11-10T18:03:17.860Z,97498.28
2023-11-10T18:06:05.854Z,97504.59
2023-11-10T18:08:52.460Z,97499.50
2023-11-10T18:11:37.447Z,97496.41
2023-11-10T18:14:22.869Z,97497.66
2023-11-10T18:17:08.380Z,97497.34
2023-11-10T18:19:53.640Z,97513.34
2023-11-10T18:22:39.081Z,97508.41
2023-11-10T18:25:24.582Z,97504.06
2023-11-10T18:28:09.964Z,97500.84
2023-11-10T18:30:55.385Z,97497.31
2023-11-10T18:33:40.536Z,97492.97
2023-11-10T18:36:28.520Z,97485.09
2023-11-10T18:39:14.145Z,97477.59
2023-11-10T18:41:59.386Z,97477.59
2023-11-10T18:44:44.685Z,97484.34
2023-11-10T18:47:30.570Z,97476.03
2023-11-10T18:50:16.035Z,97474.94
2023-11-10T18:53:01.605Z,97478.16
2023-11-10T18:55:47.151Z,97477.41
2023-11-10T18:58:33.217Z,97473.09
2023-11-10T19:01:18.170Z,97478.66
2023-11-10T19:04:03.464Z,97474.00
2023-11-10T19:06:49.639Z,97472.47
2023-11-10T19:09:35.192Z,97473.38
2023-11-10T19:12:20.579Z,97471.06
2023-11-10T19:15:06.736Z,97474.16
2023-11-10T19:17:52.437Z,97469.84
2023-11-10T19:20:38.184Z,97471.38
2023-11-10T19:23:23.519Z,97466.28
2023-11-10T19:26:08.973Z,97471.38
2023-11-10T19:28:54.610Z,97466.59
2023-11-10T19:31:41.236Z,97474.16
2023-11-10T19:34:26.630Z,97472.59
2023-11-10T19:37:12.321Z,97476.63
2023-11-10T19:39:57.803Z,97480.59
2023-11-10T19:42:45.411Z,97482.16
2023-11-10T19:45:31.156Z,97471.97
2023-11-10T19:48:18.187Z,97480.28
2023-11-10T19:52:22.821Z,97478.00
2023-11-10T19:56:59.682Z,97483.22
2023-11-10T20:00:57.574Z,97475.34
2023-11-10T20:02:59.118Z,97478.13
2023-11-10T20:05:44.800Z,97484.13
2023-11-10T20:08:30.305Z,97477.03
2023-11-10T20:11:19.908Z,97482.59
2023-11-10T20:14:05.327Z,97483.81
2023-11-10T20:16:51.280Z,97473.50
2023-11-10T20:19:37.732Z,97485.34
2023-11-10T20:22:23.305Z,97471.50
2023-11-10T20:25:08.899Z,97476.59
2023-11-10T20:27:54.020Z,97476.59
2023-11-10T20:30:39.697Z,97473.03
2023-11-10T20:33:25.190Z,97473.03
2023-11-10T20:36:10.603Z,97463.94
2023-11-10T20:38:56.077Z,97465.50
2023-11-10T20:41:42.450Z,97463.94
2023-11-10T20:44:28.109Z,97460.41
2023-11-10T20:47:14.070Z,97461.50
2023-11-10T20:49:59.853Z,97461.19
2023-11-10T20:52:45.856Z,97458.72
2023-11-10T20:55:31.585Z,97458.59
2023-11-10T20:58:16.606Z,97459.34
2023-11-10T21:01:02.024Z,97462.88
2023-11-10T21:03:47.537Z,97461.69
2023-11-10T21:06:32.740Z,97460.88
2023-11-10T21:09:18.139Z,97461.34
2023-11-10T21:12:04.963Z,97468.88
2023-11-10T21:14:50.321Z,97460.28
2023-11-10T21:17:35.763Z,97454.72
2023-11-10T21:20:21.451Z,97456.72
2023-11-10T21:23:11.762Z,97461.19
2023-11-10T21:25:57.070Z,97461.94
2023-11-10T21:28:42.611Z,97459.47
2023-11-10T21:31:29.058Z,97450.09
2023-11-10T21:34:14.529Z,97449.31
2023-11-10T21:36:59.684Z,97439.00
2023-11-10T21:39:45.560Z,97439.75
2023-11-10T21:42:31.110Z,97434.38
2023-11-10T21:45:16.832Z,97437.16
2023-11-10T21:48:03.598Z,97439.94
2023-11-10T21:50:49.262Z,97439.16
2023-11-10T21:53:34.568Z,97420.53
2023-11-10T21:56:20.785Z,97434.69
2023-11-10T21:59:06.342Z,97429.16
2023-11-10T22:01:51.708Z,97427.59
2023-11-10T22:04:37.069Z,97420.06
2023-11-10T22:07:22.740Z,97425.63
2023-11-10T22:10:11.933Z,97415.31
2023-11-10T22:12:56.810Z,97404.22
2023-11-10T22:15:42.412Z,97400.69
2023-11-10T22:18:28.158Z,97399.56
2023-11-10T22:21:13.569Z,97403.91
2023-11-10T22:23:58.903Z,97399.88
2023-11-10T22:26:44.347Z,97397.44
2023-11-10T22:29:29.693Z,97397.09
2023-11-10T22:32:14.982Z,97393.13
2023-11-10T22:35:00.382Z,97383.72
2023-11-10T22:37:45.835Z,97378.94
2023-11-10T22:40:31.393Z,97372.66
2023-11-10T22:43:17.525Z,97372.66
2023-11-10T22:46:02.887Z,97376.19
2023-11-10T22:48:48.358Z,97373.41
2023-11-10T22:51:33.909Z,97368.75
2023-11-10T22:54:19.531Z,97364.78
2023-11-10T22:57:05.230Z,97366.31
2023-11-10T22:59:50.744Z,97359.25
2023-11-10T23:02:36.679Z,97358.47
2023-11-10T23:05:22.697Z,97365.22
2023-11-10T23:08:09.757Z,97355.38
2023-11-10T23:10:54.995Z,97355.38
2023-11-10T23:13:42.511Z,97359.38
2023-11-10T23:16:27.878Z,97354.63
2023-11-10T23:19:13.209Z,97353.84
2023-11-10T23:21:58.486Z,97356.59
2023-11-10T23:24:44.665Z,97358.59
2023-11-10T23:27:31.212Z,97349.09
2023-11-10T23:30:18.733Z,97350.28
2023-11-10T23:33:04.443Z,97347.53
2023-11-10T23:35:58.969Z,97353.06
2023-11-10T23:38:46.823Z,97343.53
2023-11-10T23:41:32.492Z,97343.53
2023-11-10T23:44:17.826Z,97351.06
2023-11-10T23:47:03.387Z,97339.22
2023-11-10T23:49:48.644Z,97347.84
2023-11-10T23:52:34.281Z,97342.75
2023-11-10T23:55:19.790Z,97337.19
2023-11-10T23:58:08.500Z,97333.66
